createdAt,value
2022-08-04T00:04:41.041Z,97036.91
2022-08-04T00:09:56.855Z,97034.63
2022-08-04T00:15:00.700Z,97028.28
2022-08-04T00:20:05.513Z,97039.88
2022-08-04T00:25:07.450Z,97048.72
2022-08-04T00:30:09.741Z,97045.13
2022-08-04T00:35:14.895Z,97045.97
2022-08-04T00:40:46.182Z,97048.53
2022-08-04T00:46:16.037Z,97035.94
2022-08-04T00:51:37.606Z,97039.50
2022-08-04T00:56:57.729Z,97038.69
2022-08-04T01:02:08.175Z,97038.81
2022-08-04T01:07:48.985Z,97043.38
2022-08-04T01:13:30.970Z,97039.94
2022-08-04T01:18:52.955Z,97037.50
2022-08-04T01:24:22.277Z,97042.91
2022-08-04T01:29:32.972Z,97041.97
2022-08-04T01:34:55.952Z,97044.00
2022-08-04T01:40:05.603Z,97039.22
2022-08-04T01:45:09.891Z,97048.25
2022-08-04T01:50:13.841Z,97047.88
2022-08-04T01:55:18.057Z,97050.19
2022-08-04T02:00:26.765Z,97055.13
2022-08-04T02:06:03.025Z,97056.13
2022-08-04T02:11:04.743Z,97053.19
2022-08-04T02:16:24.651Z,97052.84
2022-08-04T02:21:28.637Z,97051.22
2022-08-04T02:26:49.940Z,97048.56
2022-08-04T02:32:04.618Z,97034.53
2022-08-04T02:37:09.152Z,97039.91
2022-08-04T02:42:15.408Z,97032.88
2022-08-04T02:47:24.566Z,97030.94
2022-08-04T02:52:49.035Z,97037.13
2022-08-04T02:57:51.983Z,97035.13
2022-08-04T03:03:31.276Z,97031.22
2022-08-04T03:09:02.352Z,97026.50
2022-08-04T03:14:18.894Z,97025.66
2022-08-04T03:19:36.006Z,97026.50
2022-08-04T03:25:02.415Z,97029.06
2022-08-04T03:30:27.356Z,97030.06
2022-08-04T03:36:09.366Z,97038.25
2022-08-04T03:41:51.867Z,97040.16
2022-08-04T03:47:44.528Z,97036.47
2022-08-04T03:53:17.759Z,97044.69
2022-08-04T03:58:53.844Z,97042.19
2022-08-04T04:04:03.559Z,97044.97
2022-08-04T04:09:55.716Z,97047.09
2022-08-04T04:15:25.893Z,97047.97
2022-08-04T04:20:45.954Z,97047.72
2022-08-04T04:26:04.022Z,97049.09
2022-08-04T04:31:43.018Z,97053.34
2022-08-04T04:37:08.226Z,97057.72
2022-08-04T04:42:41.947Z,97060.75
2022-08-04T04:48:17.822Z,97067.38
2022-08-04T04:53:22.458Z,97070.94
2022-08-04T04:58:25.493Z,97060.47
2022-08-04T05:03:48.712Z,97059.19
2022-08-04T05:08:59.377Z,97056.09
2022-08-04T05:14:37.034Z,97060.69
2022-08-04T05:20:21.907Z,97068.28
2022-08-04T05:25:41.110Z,97073.69
2022-08-04T05:31:06.217Z,97067.88
2022-08-04T05:36:18.875Z,97066.72
2022-08-04T05:41:23.545Z,97064.59
2022-08-04T05:46:36.249Z,97074.03
2022-08-04T05:51:38.801Z,97071.53
2022-08-04T05:56:42.246Z,97063.44
2022-08-04T06:01:56.761Z,97070.50
2022-08-04T06:06:59.102Z,97061.91
2022-08-04T06:12:06.701Z,97067.19
2022-08-04T06:18:33.622Z,97058.06
2022-08-04T06:22:35.483Z,97063.19
2022-08-04T06:27:38.084Z,97061.84
2022-08-04T06:33:05.158Z,97060.50
2022-08-04T06:38:08.640Z,97056.38
2022-08-04T06:43:11.708Z,97054.53
2022-08-04T06:48:16.811Z,97053.38
2022-08-04T06:53:19.114Z,97065.53
2022-08-04T06:58:22.467Z,97058.78
2022-08-04T07:03:24.491Z,97059.25
2022-08-04T07:08:27.136Z,97055.00
2022-08-04T07:13:31.439Z,97052.00
2022-08-04T07:18:33.267Z,97057.94
2022-08-04T07:23:35.209Z,97062.19
2022-08-04T07:28:37.007Z,97061.66
2022-08-04T07:33:40.514Z,97069.53
2022-08-04T07:38:48.177Z,97064.59
2022-08-04T07:43:54.742Z,97073.69
2022-08-04T07:48:58.202Z,97076.28
2022-08-04T07:54:00.501Z,97063.69
2022-08-04T07:59:02.605Z,97071.09
2022-08-04T08:04:08.493Z,97057.13
2022-08-04T08:09:18.749Z,97055.84
2022-08-04T08:14:21.355Z,97052.78
2022-08-04T08:19:26.350Z,97057.44
2022-08-04T08:24:30.201Z,97053.38
2022-08-04T08:29:34.915Z,97049.63
2022-08-04T08:34:38.521Z,97047.66
2022-08-04T08:39:49.117Z,97045.63
2022-08-04T08:45:12.149Z,97037.75
2022-08-04T08:50:55.985Z,97042.19
2022-08-04T08:56:03.667Z,97047.00
2022-08-04T09:01:43.278Z,97046.16
2022-08-04T09:06:58.963Z,97043.25
2022-08-04T09:12:41.508Z,97039.53
2022-08-04T09:17:50.326Z,97039.75
2022-08-04T09:23:06.047Z,97045.63
2022-08-04T09:28:52.926Z,97040.84
2022-08-04T09:34:11.571Z,97039.41
2022-08-04T09:39:29.351Z,97037.13
2022-08-04T09:44:57.446Z,97033.19
2022-08-04T09:50:13.311Z,97037.66
2022-08-04T09:55:53.832Z,97030.03
2022-08-04T10:01:02.313Z,97026.50
2022-08-04T10:06:11.726Z,97013.19
2022-08-04T10:11:21.910Z,97010.41
2022-08-04T10:16:35.809Z,97010.03
2022-08-04T10:21:50.681Z,97006.81
2022-08-04T10:27:19.343Z,97000.31
2022-08-04T10:32:26.248Z,96996.66
2022-08-04T10:37:56.527Z,96992.22
2022-08-04T10:43:03.843Z,97002.72
2022-08-04T10:48:10.738Z,96991.41
2022-08-04T10:53:19.557Z,96980.00
2022-08-04T10:58:47.675Z,96981.59
2022-08-04T11:03:56.190Z,96980.72
2022-08-04T11:08:59.325Z,96979.06
2022-08-04T11:14:09.165Z,96969.22
2022-08-04T11:19:17.637Z,96969.97
2022-08-04T11:24:40.642Z,96967.56
2022-08-04T11:30:01.370Z,96964.28
2022-08-04T11:35:08.711Z,96964.63
2022-08-04T11:40:23.676Z,96959.19
2022-08-04T11:45:32.324Z,96960.75
2022-08-04T11:50:45.115Z,96959.09
2022-08-04T11:56:07.909Z,96950.09
2022-08-04T12:01:32.182Z,96956.03
2022-08-04T12:07:04.676Z,96945.81
2022-08-04T12:12:34.886Z,96946.09
2022-08-04T12:18:14.059Z,96940.69
2022-08-04T12:23:24.300Z,96937.25
2022-08-04T12:28:59.602Z,96933.00
2022-08-04T12:34:30.862Z,96918.66
2022-08-04T12:39:34.902Z,96918.00
2022-08-04T12:44:43.960Z,96903.34
2022-08-04T12:49:59.977Z,96906.03
2022-08-04T12:55:05.619Z,96911.28
2022-08-04T13:00:09.077Z,96901.28
2022-08-04T13:05:17.022Z,96895.28
2022-08-04T13:10:30.124Z,96895.53
2022-08-04T13:15:33.633Z,96891.09
2022-08-04T13:20:49.467Z,96886.03
2022-08-04T13:26:45.048Z,96871.72
2022-08-04T13:31:27.460Z,96870.91
2022-08-04T13:36:39.210Z,96869.97
2022-08-04T13:41:54.457Z,96875.06
2022-08-04T13:47:22.620Z,96864.47
2022-08-04T13:52:28.973Z,96860.94
2022-08-04T13:57:36.099Z,96854.78
2022-08-04T14:02:48.966Z,96862.44
2022-08-04T14:08:07.358Z,96858.56
2022-08-04T14:13:09.290Z,96843.72
2022-08-04T14:18:26.132Z,96837.38
2022-08-04T14:23:37.509Z,96837.91
2022-08-04T14:29:25.000Z,96842.94
2022-08-04T14:34:25.345Z,96828.09
2022-08-04T14:40:07.607Z,96833.09
2022-08-04T14:45:05.350Z,96828.59
2022-08-04T14:50:09.361Z,96826.25
2022-08-04T14:55:23.622Z,96822.22
2022-08-04T15:00:31.594Z,96819.81
2022-08-04T15:06:02.796Z,96820.97
2022-08-04T15:10:58.590Z,96813.63
2022-08-04T15:16:06.206Z,96803.72
2022-08-04T15:21:10.734Z,96799.63
2022-08-04T15:26:15.639Z,96803.31
2022-08-04T15:32:05.773Z,96797.19
2022-08-04T15:37:02.434Z,96797.31
2022-08-04T15:42:35.671Z,96788.09
2022-08-04T15:47:37.719Z,96781.94
2022-08-04T15:53:12.446Z,96783.81
2022-08-04T15:58:17.089Z,96789.59
2022-08-04T16:03:58.583Z,96775.34
2022-08-04T16:08:57.589Z,96780.34
2022-08-04T16:14:02.807Z,96776.59
2022-08-04T16:19:05.336Z,96764.31
2022-08-04T16:24:19.056Z,96764.66
2022-08-04T16:29:23.901Z,96767.88
2022-08-04T16:34:50.035Z,96757.56
2022-08-04T16:39:51.506Z,96760.47
2022-08-04T16:45:09.101Z,96755.94
2022-08-04T16:50:11.047Z,96758.91
2022-08-04T16:55:15.832Z,96757.75
2022-08-04T17:00:18.696Z,96753.81
2022-08-04T17:05:38.855Z,96744.59
2022-08-04T17:10:43.070Z,96747.91
2022-08-04T17:15:47.550Z,96734.00
2022-08-04T17:21:01.897Z,96736.34
2022-08-04T17:26:18.076Z,96729.75
2022-08-04T17:31:20.735Z,96731.06
2022-08-04T17:36:24.853Z,96735.09
2022-08-04T17:41:38.989Z,96733.41
2022-08-04T17:46:48.139Z,96723.88
2022-08-04T17:52:04.478Z,96723.34
2022-08-04T17:57:21.287Z,96721.25
2022-08-04T18:02:33.265Z,96728.50
2022-08-04T18:08:38.745Z,96737.59
2022-08-04T18:13:14.177Z,96730.78
2022-08-04T18:18:23.736Z,96734.38
2022-08-04T18:23:31.992Z,96729.75
2022-08-04T18:28:34.795Z,96728.25
2022-08-04T18:33:40.574Z,96732.31
2022-08-04T18:38:55.557Z,96728.63
2022-08-04T18:44:00.537Z,96736.97
2022-08-04T18:49:05.172Z,96746.88
2022-08-04T18:54:07.820Z,96747.03
2022-08-04T18:59:10.702Z,96749.88
2022-08-04T19:04:32.903Z,96754.34
2022-08-04T19:09:50.912Z,96759.97
2022-08-04T19:14:58.269Z,96765.78
2022-08-04T19:20:02.973Z,96767.31
2022-08-04T19:25:05.102Z,96771.97
2022-08-04T19:30:11.602Z,96777.72
2022-08-04T19:35:13.451Z,96786.25
2022-08-04T19:40:15.347Z,96786.81
2022-08-04T19:45:17.985Z,96784.13
2022-08-04T19:50:20.049Z,96787.88
2022-08-04T19:55:37.402Z,96793.56
2022-08-04T20:00:40.786Z,96791.34
2022-08-04T20:05:55.797Z,96799.91
2022-08-04T20:10:58.121Z,96796.00
2022-08-04T20:16:01.117Z,96806.69
2022-08-04T20:21:02.861Z,96810.22
2022-08-04T20:26:04.625Z,96802.09
2022-08-04T20:31:06.773Z,96810.22
2022-08-04T20:36:10.016Z,96797.56
2022-08-04T20:41:11.977Z,96806.09
2022-08-04T20:46:17.890Z,96810.50
2022-08-04T20:51:32.182Z,96809.94
2022-08-04T20:56:35.775Z,96815.06
2022-08-04T21:01:37.554Z,96811.56
2022-08-04T21:06:39.245Z,96817.34
2022-08-04T21:11:43.458Z,96820.69
2022-08-04T21:16:53.779Z,96809.56
2022-08-04T21:21:57.716Z,96819.53
2022-08-04T21:27:03.993Z,96818.56
2022-08-04T21:32:08.549Z,96815.72
2022-08-04T21:37:12.775Z,96823.97
2022-08-04T21:42:42.297Z,96814.06
2022-08-04T21:47:45.636Z,96811.41
2022-08-04T21:52:49.690Z,96811.91
2022-08-04T21:57:51.570Z,96812.53
2022-08-04T22:02:53.856Z,96816.09
2022-08-04T22:07:55.577Z,96812.19
2022-08-04T22:12:57.303Z,96801.84
2022-08-04T22:18:00.370Z,96808.50
2022-08-04T22:23:16.935Z,96807.75
2022-08-04T22:28:28.395Z,96803.19
2022-08-04T22:33:54.740Z,96803.34
2022-08-04T22:39:04.546Z,96810.81
2022-08-04T22:44:12.269Z,96799.59
2022-08-04T22:49:17.147Z,96798.38
2022-08-04T22:54:18.973Z,96790.19
2022-08-04T22:59:21.160Z,96790.31
2022-08-04T23:04:23.210Z,96788.91
2022-08-04T23:09:49.136Z,96790.31
2022-08-04T23:14:47.717Z,96791.63
2022-08-04T23:19:57.398Z,96788.22
2022-08-04T23:25:00.079Z,96787.22
2022-08-04T23:30:01.768Z,96786.16
2022-08-04T23:35:04.199Z,96785.00
2022-08-04T23:40:28.241Z,96785.53
2022-08-04T23:46:04.214Z,96786.50
2022-08-04T23:50:50.093Z,96796.00
2022-08-04T23:55:51.899Z,96790.66
